Time;durP1;ratioP1;P1;durP2;ratioP2;P2;SDS_P1;SDS_P2;PMS_P1;PMS_P2;Temp;Humidity;BMP_temperature;BMP_pressure;BME280_temperature;BME280_humidity;BME280_pressure;Samples;Min_cycle;Max_cycle;Signal;HPM_P1;HPM_P2
2022/02/01 00:02:11;;;;;;;13.60;8.20;;;3.20;99.90;;;;;;5070638;28;20989;-61
2022/02/01 00:04:48;;;;;;;15.93;8.87;;;3.20;99.90;;;;;;5062465;28;20529;-61
2022/02/01 00:07:23;;;;;;;16.63;8.87;;;3.20;99.90;;;;;;5069832;28;20480;-61
2022/02/01 00:09:53;;;;;;;15.97;8.20;;;3.10;99.90;;;;;;5070525;28;20550;-61
2022/02/01 00:12:32;;;;;;;13.90;7.07;;;3.10;99.90;;;;;;5070402;28;20471;-61
2022/02/01 00:15:27;;;;;;;13.00;6.93;;;3.10;99.90;;;;;;5070289;28;21013;-61
2022/02/01 00:18:17;;;;;;;13.23;5.93;;;3.10;99.90;;;;;;5070219;28;20900;-60
2022/02/01 00:34:54;;;;;;;11.37;2.67;;;3.20;99.90;;;;;;5069845;28;20464;-61
2022/02/01 00:37:25;;;;;;;7.97;2.30;;;3.20;99.90;;;;;;5070087;28;20508;-61
2022/02/01 00:39:58;;;;;;;7.50;2.10;;;3.20;99.90;;;;;;5070274;28;20550;-61
2022/02/01 00:42:26;;;;;;;4.07;1.80;;;3.20;99.90;;;;;;5070188;28;20501;-61
2022/02/01 00:44:54;;;;;;;10.17;2.00;;;3.20;99.90;;;;;;5070310;28;20473;-61
2022/02/01 00:47:22;;;;;;;7.50;1.90;;;3.20;99.90;;;;;;5069838;28;20508;-61
2022/02/01 00:49:51;;;;;;;7.03;1.67;;;3.20;99.90;;;;;;5070203;28;20476;-61
2022/02/01 00:52:19;;;;;;;8.50;1.90;;;3.30;99.90;;;;;;5069996;28;20556;-61
2022/02/01 00:54:48;;;;;;;4.10;1.60;;;3.20;99.90;;;;;;5069988;28;20506;-61
2022/02/01 00:57:18;;;;;;;6.83;1.70;;;3.30;99.90;;;;;;5069683;28;20502;-61
2022/02/01 00:59:46;;;;;;;8.70;2.07;;;3.40;99.90;;;;;;5062797;28;20794;-61
2022/02/01 01:02:14;;;;;;;8.13;1.80;;;3.30;99.90;;;;;;5073370;28;20488;-61
2022/02/01 01:04:42;;;;;;;8.43;1.80;;;3.40;99.90;;;;;;5073602;28;20482;-61
2022/02/01 01:07:11;;;;;;;6.87;1.57;;;3.40;99.90;;;;;;5073081;28;20480;-61
2022/02/01 01:09:39;;;;;;;7.37;1.97;;;3.30;99.90;;;;;;5073632;28;20481;-61
2022/02/01 01:12:10;;;;;;;4.37;1.30;;;3.50;99.90;;;;;;5073784;28;20871;-61
2022/02/01 01:15:06;;;;;;;5.80;1.47;;;3.60;99.90;;;;;;5065094;28;20506;-61
2022/02/01 01:17:54;;;;;;;6.93;1.10;;;3.40;99.90;;;;;;5073232;28;20460;-61
2022/02/01 01:45:22;;;;;;;6.50;1.80;;;3.20;99.90;;;;;;5072914;28;20491;-61
2022/02/01 01:53:22;;;;;;;12.87;2.27;;;3.20;99.90;;;;;;5066294;28;20851;-61
2022/02/01 01:55:53;;;;;;;9.87;1.77;;;3.20;99.90;;;;;;5072662;28;20465;-60
2022/02/01 01:58:25;;;;;;;9.13;1.80;;;3.20;99.90;;;;;;5072792;28;20521;-61
2022/02/01 02:01:11;;;;;;;10.77;1.70;;;3.20;99.90;;;;;;5070927;28;20528;-61
2022/02/01 02:03:41;;;;;;;9.47;2.13;;;3.20;99.90;;;;;;5029958;28;20476;-61
2022/02/01 02:06:09;;;;;;;14.07;2.40;;;3.20;99.90;;;;;;5025384;28;20480;-61
2022/02/01 02:08:38;;;;;;;15.00;1.93;;;3.20;99.90;;;;;;5040863;28;20881;-61
2022/02/01 02:11:10;;;;;;;15.40;2.07;;;3.20;99.90;;;;;;5054426;28;20432;-60
2022/02/01 02:16:35;;;;;;;13.87;2.33;;;3.20;99.90;;;;;;5039869;28;20960;-61
2022/02/01 02:19:04;;;;;;;13.73;2.10;;;3.10;99.90;;;;;;5052825;28;20479;-61
2022/02/01 02:21:33;;;;;;;16.43;2.47;;;3.10;99.90;;;;;;5052383;28;20473;-61
2022/02/01 02:24:02;;;;;;;19.90;2.73;;;3.10;99.90;;;;;;5060769;28;20461;-61
2022/02/01 02:26:32;;;;;;;12.50;2.53;;;3.10;99.90;;;;;;5071647;28;20976;-61
2022/02/01 02:29:02;;;;;;;15.07;2.40;;;3.20;99.90;;;;;;5071765;28;20539;-61
2022/02/01 02:31:31;;;;;;;11.73;1.50;;;3.20;99.90;;;;;;5071865;28;20469;-61
2022/02/01 02:34:07;;;;;;;15.50;2.13;;;3.20;99.90;;;;;;5071794;28;20459;-61
2022/02/01 02:36:43;;;;;;;14.30;1.87;;;3.20;99.90;;;;;;5071813;28;20478;-61
2022/02/01 02:39:24;;;;;;;12.53;2.27;;;3.30;99.90;;;;;;5068112;28;20471;-60
2022/02/01 02:42:06;;;;;;;16.53;2.33;;;3.30;99.90;;;;;;5071765;28;20523;-61
2022/02/01 02:47:20;;;;;;;11.07;2.10;;;3.40;99.90;;;;;;5070937;28;20526;-61
2022/02/01 02:49:49;;;;;;;11.27;1.87;;;3.40;99.90;;;;;;5063250;28;20997;-61
2022/02/01 02:52:18;;;;;;;13.70;2.70;;;3.30;99.90;;;;;;5071669;28;20529;-61
2022/02/01 02:54:47;;;;;;;16.77;1.77;;;3.30;99.90;;;;;;5071363;28;20562;-61
2022/02/01 02:57:15;;;;;;;11.77;2.20;;;3.30;99.90;;;;;;5071041;28;20486;-61
2022/02/01 02:59:43;;;;;;;12.33;2.43;;;3.30;99.90;;;;;;5071019;28;20461;-61
2022/02/01 03:02:11;;;;;;;16.57;2.40;;;3.30;99.90;;;;;;5070936;28;20904;-61
2022/02/01 03:04:39;;;;;;;7.90;1.60;;;3.30;99.90;;;;;;5063039;28;20477;-61
2022/02/01 03:07:08;;;;;;;7.87;1.60;;;3.20;99.90;;;;;;5070628;28;20502;-61
2022/02/01 03:09:40;;;;;;;11.93;1.90;;;3.20;99.90;;;;;;5071314;28;20529;-60
2022/02/01 03:12:14;;;;;;;11.30;1.57;;;3.20;99.90;;;;;;5071160;28;20529;-61
2022/02/01 03:14:50;;;;;;;12.90;1.87;;;3.30;99.90;;;;;;5063197;28;20484;-61
2022/02/01 03:17:26;;;;;;;8.30;2.03;;;3.20;99.90;;;;;;5070641;28;20888;-61
2022/02/01 03:19:55;;;;;;;8.57;1.67;;;3.20;99.90;;;;;;5056771;28;20478;-61
2022/02/01 03:22:26;;;;;;;14.47;2.07;;;3.30;99.90;;;;;;5068267;28;20590;-61
2022/02/01 03:24:59;;;;;;;13.10;2.67;;;3.20;99.90;;;;;;5071069;28;20502;-61
2022/02/01 03:27:27;;;;;;;12.87;1.67;;;3.30;99.90;;;;;;5070361;28;20500;-60
2022/02/01 03:29:56;;;;;;;8.93;2.00;;;3.20;99.90;;;;;;5070910;28;20842;-61
2022/02/01 03:32:25;;;;;;;8.17;1.30;;;3.20;99.90;;;;;;5070670;28;20478;-61
2022/02/01 03:34:54;;;;;;;10.87;2.07;;;3.20;99.90;;;;;;5070677;28;20473;-60
2022/02/01 03:37:23;;;;;;;15.20;2.20;;;3.20;99.90;;;;;;5070683;28;20831;-61
2022/02/01 03:39:52;;;;;;;13.97;2.40;;;3.20;99.90;;;;;;5070598;28;21030;-61
2022/02/01 03:42:23;;;;;;;10.37;2.03;;;3.20;99.90;;;;;;5070634;28;20527;-61
2022/02/01 03:44:52;;;;;;;11.03;2.10;;;3.20;99.90;;;;;;5070700;28;20490;-60
2022/02/01 03:47:21;;;;;;;10.33;1.73;;;3.30;99.90;;;;;;5069784;28;20466;-61
2022/02/01 03:49:49;;;;;;;13.17;2.00;;;3.20;99.90;;;;;;5070389;28;20498;-61
2022/02/01 03:52:17;;;;;;;13.10;2.37;;;3.20;99.90;;;;;;5070650;28;20473;-61
2022/02/01 03:54:46;;;;;;;12.50;1.90;;;3.30;99.90;;;;;;5070655;28;20535;-61
2022/02/01 03:57:15;;;;;;;12.47;2.30;;;3.30;99.90;;;;;;5070445;28;20481;-61
2022/02/01 03:59:47;;;;;;;14.30;2.30;;;3.30;99.90;;;;;;5070484;28;20481;-61
2022/02/01 04:02:16;;;;;;;8.17;1.50;;;3.30;99.90;;;;;;5070476;28;20880;-61
2022/02/01 04:04:49;;;;;;;15.50;2.10;;;3.50;99.90;;;;;;5070493;28;20483;-61
2022/02/01 04:07:17;;;;;;;9.27;1.67;;;3.40;99.90;;;;;;5070341;28;20552;-61
2022/02/01 04:09:45;;;;;;;15.13;2.30;;;3.50;99.90;;;;;;5070236;28;20465;-61
2022/02/01 04:12:13;;;;;;;11.77;1.63;;;3.40;99.90;;;;;;5070457;28;20798;-61
2022/02/01 04:14:42;;;;;;;10.27;1.80;;;3.30;99.90;;;;;;5070067;28;20504;-60
2022/02/01 04:17:11;;;;;;;9.93;1.87;;;3.30;99.90;;;;;;5070103;28;20893;-61
2022/02/01 04:19:41;;;;;;;10.47;2.17;;;3.30;99.90;;;;;;5062243;28;20469;-62
2022/02/01 04:22:09;;;;;;;12.10;2.40;;;3.40;99.90;;;;;;5070162;28;20476;-61
2022/02/01 04:24:40;;;;;;;13.13;2.20;;;3.30;99.90;;;;;;5069984;28;20475;-62
2022/02/01 04:27:11;;;;;;;12.23;2.10;;;3.40;99.90;;;;;;5070103;28;20527;-61
2022/02/01 04:29:45;;;;;;;17.57;2.20;;;3.50;99.90;;;;;;5062039;28;20528;-60
2022/02/01 04:32:15;;;;;;;11.67;1.83;;;3.40;99.90;;;;;;5070300;28;20511;-60
2022/02/01 04:34:45;;;;;;;10.10;1.70;;;3.40;99.90;;;;;;5071020;28;20834;-61
2022/02/01 04:37:14;;;;;;;17.30;2.30;;;3.30;99.90;;;;;;5074018;28;20570;-61
2022/02/01 04:39:42;;;;;;;9.67;1.93;;;3.30;99.90;;;;;;5073794;28;20550;-60
2022/02/01 04:42:10;;;;;;;14.03;1.80;;;3.20;99.90;;;;;;5073992;28;20497;-61
2022/02/01 04:44:38;;;;;;;10.83;1.73;;;3.20;99.90;;;;;;5074025;28;20468;-60
2022/02/01 04:47:08;;;;;;;11.30;1.70;;;3.20;99.90;;;;;;5073350;28;20467;-61
2022/02/01 04:49:37;;;;;;;11.60;2.77;;;3.20;99.90;;;;;;5073483;28;20473;-61
2022/02/01 04:52:06;;;;;;;12.37;2.10;;;3.30;99.90;;;;;;5071336;28;20578;-61
2022/02/01 04:54:34;;;;;;;12.00;2.70;;;3.30;99.90;;;;;;5073570;28;20465;-61
2022/02/01 04:57:02;;;;;;;15.60;2.57;;;3.30;99.90;;;;;;5073769;28;20476;-60
2022/02/01 04:59:30;;;;;;;14.30;2.30;;;3.30;99.90;;;;;;5073454;28;20445;-60
2022/02/01 05:01:59;;;;;;;16.83;2.80;;;3.30;99.90;;;;;;5073560;28;20543;-61
2022/02/01 05:04:27;;;;;;;12.27;2.83;;;3.30;99.90;;;;;;5073307;28;20467;-60
2022/02/01 05:06:56;;;;;;;11.33;2.10;;;3.30;99.90;;;;;;5073285;28;20483;-61
2022/02/01 05:09:26;;;;;;;11.60;1.90;;;3.30;99.90;;;;;;5073521;28;20471;-60
2022/02/01 05:11:56;;;;;;;12.20;1.87;;;3.40;99.90;;;;;;5073565;28;20533;-61
2022/02/01 05:14:26;;;;;;;9.50;1.90;;;3.40;99.90;;;;;;5073350;28;20562;-61
2022/02/01 05:16:59;;;;;;;12.70;2.30;;;3.40;99.90;;;;;;5072715;28;21068;-60
2022/02/01 05:19:53;;;;;;;8.90;1.70;;;3.40;99.90;;;;;;5069949;28;20456;-61
2022/02/01 05:22:24;;;;;;;7.77;1.60;;;3.30;99.90;;;;;;5072357;28;20474;-61
2022/02/01 05:24:55;;;;;;;10.00;2.07;;;3.30;99.90;;;;;;5072807;28;20989;-61
2022/02/01 05:27:28;;;;;;;12.73;1.80;;;3.40;99.90;;;;;;5069944;28;20470;-60
2022/02/01 05:29:57;;;;;;;10.33;2.23;;;3.40;99.90;;;;;;5072910;28;20472;-61
2022/02/01 05:32:25;;;;;;;9.37;2.23;;;3.50;99.90;;;;;;5072667;28;20570;-61
2022/02/01 05:34:55;;;;;;;12.50;2.03;;;3.60;99.90;;;;;;5073001;28;20479;-61
2022/02/01 05:37:25;;;;;;;10.37;1.90;;;3.50;99.90;;;;;;5072905;28;20511;-61
2022/02/01 05:39:53;;;;;;;7.67;1.57;;;3.50;99.90;;;;;;5072905;28;20922;-61
2022/02/01 05:42:28;;;;;;;9.67;2.10;;;3.50;99.90;;;;;;5072855;28;20997;-61
2022/02/01 05:44:56;;;;;;;9.20;1.73;;;3.50;99.90;;;;;;5072660;28;20467;-60
2022/02/01 05:47:25;;;;;;;16.23;2.87;;;3.50;99.90;;;;;;5072214;28;20471;-61
2022/02/01 05:49:53;;;;;;;8.40;1.53;;;3.50;99.90;;;;;;5058991;28;20470;-61
2022/02/01 05:52:21;;;;;;;13.20;2.23;;;3.50;99.90;;;;;;5071366;28;20474;-61
2022/02/01 05:54:50;;;;;;;8.33;1.80;;;3.50;99.90;;;;;;5071916;28;20475;-61
2022/02/01 05:57:18;;;;;;;10.27;1.53;;;3.50;99.90;;;;;;5072140;28;20473;-61
2022/02/01 05:59:46;;;;;;;14.90;2.20;;;3.60;99.90;;;;;;5069330;28;20461;-60
2022/02/01 06:02:16;;;;;;;10.47;2.07;;;3.60;99.90;;;;;;5071777;28;20515;-61
2022/02/01 06:04:44;;;;;;;7.60;1.70;;;3.60;99.90;;;;;;5072306;28;20464;-61
2022/02/01 06:07:12;;;;;;;10.67;1.63;;;3.60;99.90;;;;;;5071479;28;20472;-61
2022/02/01 06:09:41;;;;;;;12.10;2.17;;;3.60;99.90;;;;;;5071844;28;20460;-61
2022/02/01 06:12:11;;;;;;;12.67;1.80;;;3.60;99.90;;;;;;5072480;28;20492;-61
2022/02/01 06:14:39;;;;;;;11.80;1.83;;;3.60;99.90;;;;;;5072302;28;20548;-61
2022/02/01 06:17:08;;;;;;;9.70;1.53;;;3.60;99.90;;;;;;5071400;28;21019;-61
2022/02/01 06:19:36;;;;;;;10.30;1.63;;;3.60;99.90;;;;;;5058760;28;20461;-61
2022/02/01 06:22:05;;;;;;;12.80;2.07;;;3.60;99.90;;;;;;5071654;28;20481;-61
2022/02/01 06:24:35;;;;;;;9.40;1.93;;;3.60;99.90;;;;;;5071825;28;20467;-61
2022/02/01 06:27:03;;;;;;;10.03;1.67;;;3.60;99.90;;;;;;5072368;28;20483;-61
2022/02/01 06:29:32;;;;;;;11.73;1.83;;;3.60;99.90;;;;;;5071768;28;20890;-61
2022/02/01 06:32:01;;;;;;;13.23;2.37;;;3.60;99.90;;;;;;5071754;28;20529;-61
2022/02/01 06:34:29;;;;;;;8.83;1.50;;;3.70;99.90;;;;;;5071401;28;20964;-61
2022/02/01 06:36:57;;;;;;;14.30;2.03;;;3.60;99.90;;;;;;5071353;28;20460;-61
2022/02/01 06:39:27;;;;;;;8.37;2.17;;;3.60;99.90;;;;;;5071545;28;20481;-60
2022/02/01 06:41:55;;;;;;;8.80;1.80;;;3.60;99.90;;;;;;5071916;28;20480;-61
2022/02/01 06:44:24;;;;;;;8.80;1.67;;;3.70;99.90;;;;;;5071333;28;20462;-61
2022/02/01 06:46:54;;;;;;;11.40;2.93;;;3.70;99.90;;;;;;5071223;28;20473;-61
2022/02/01 06:49:23;;;;;;;8.27;1.83;;;3.70;99.90;;;;;;5070896;28;20901;-61
2022/02/01 06:51:52;;;;;;;9.73;2.13;;;3.60;99.90;;;;;;5071189;28;20479;-61
2022/02/01 06:54:20;;;;;;;8.63;2.23;;;3.60;99.90;;;;;;5071387;28;20491;-61
2022/02/01 06:56:48;;;;;;;16.03;2.47;;;3.60;99.90;;;;;;5070614;28;20474;-61
2022/02/01 06:59:16;;;;;;;9.43;1.63;;;3.60;99.90;;;;;;5070075;28;20511;-61
2022/02/01 07:01:44;;;;;;;13.37;2.33;;;3.60;99.90;;;;;;5070819;28;20990;-61
2022/02/01 07:04:14;;;;;;;11.43;2.20;;;3.60;99.90;;;;;;5071014;28;20469;-61
2022/02/01 07:06:42;;;;;;;9.37;2.23;;;3.50;99.90;;;;;;5066472;28;20477;-61
2022/02/01 07:09:10;;;;;;;9.37;1.73;;;3.60;99.90;;;;;;5063603;28;20477;-61
2022/02/01 07:11:39;;;;;;;11.90;2.30;;;3.50;99.90;;;;;;5064056;28;20462;-61
2022/02/01 07:14:07;;;;;;;13.20;2.03;;;3.50;99.90;;;;;;5064286;28;20489;-61
2022/02/01 07:16:36;;;;;;;12.10;2.37;;;3.60;99.90;;;;;;5063342;28;20468;-61
2022/02/01 07:19:05;;;;;;;9.77;1.73;;;3.50;99.90;;;;;;5064084;28;20884;-60
2022/02/01 07:21:35;;;;;;;11.83;1.90;;;3.60;99.90;;;;;;5063670;28;20469;-61
2022/02/01 07:24:05;;;;;;;11.47;2.40;;;3.50;99.90;;;;;;5063626;28;20488;-61
2022/02/01 07:26:33;;;;;;;8.13;1.50;;;3.60;99.90;;;;;;5066360;28;20488;-59
2022/02/01 07:29:02;;;;;;;11.57;2.13;;;3.60;99.90;;;;;;5064401;28;20488;-61
2022/02/01 07:31:35;;;;;;;13.50;2.07;;;3.50;99.90;;;;;;5069517;28;20476;-61
2022/02/01 07:34:03;;;;;;;12.77;1.70;;;3.50;99.90;;;;;;5047773;28;21108;-61
2022/02/01 07:36:32;;;;;;;10.00;2.13;;;3.60;99.90;;;;;;5047011;28;20486;-61
2022/02/01 07:39:05;;;;;;;9.30;1.73;;;3.60;99.90;;;;;;5046834;28;20872;-61
2022/02/01 07:41:36;;;;;;;12.47;1.70;;;3.60;99.90;;;;;;5045712;28;20483;-61
2022/02/01 07:44:06;;;;;;;6.00;1.57;;;3.60;99.90;;;;;;5044870;28;20492;-61
2022/02/01 07:46:36;;;;;;;8.70;1.60;;;3.60;99.90;;;;;;5065253;28;20483;-60
2022/02/01 07:49:06;;;;;;;9.77;1.73;;;3.60;99.90;;;;;;5065868;28;21423;-60
2022/02/01 07:51:35;;;;;;;12.30;1.73;;;3.70;99.90;;;;;;5065929;28;21323;-61
2022/02/01 07:54:05;;;;;;;11.37;1.70;;;3.70;99.90;;;;;;5065702;28;20530;-61
2022/02/01 07:56:34;;;;;;;11.03;1.60;;;3.70;99.90;;;;;;5053067;28;20575;-61
2022/02/01 07:59:03;;;;;;;8.17;1.57;;;3.70;99.90;;;;;;5049557;28;20500;-60
2022/02/01 08:01:33;;;;;;;8.10;1.73;;;3.70;99.90;;;;;;5046501;28;20465;-60
2022/02/01 08:04:02;;;;;;;12.27;1.87;;;3.70;99.90;;;;;;5063856;28;20484;-60
2022/02/01 08:06:31;;;;;;;11.07;1.77;;;3.70;99.90;;;;;;5051154;28;20498;-60
2022/02/01 08:09:09;;;;;;;11.50;1.77;;;3.70;99.90;;;;;;5055793;28;20480;-61
2022/02/01 08:11:40;;;;;;;10.07;2.23;;;3.80;99.90;;;;;;5058437;28;20529;-61
2022/02/01 08:15:14;;;;;;;9.23;2.00;;;3.80;99.90;;;;;;5058517;28;20514;-60
2022/02/01 08:17:41;;;;;;;9.20;1.50;;;3.80;99.90;;;;;;5060078;28;20480;-60
2022/02/01 08:20:11;;;;;;;8.23;1.93;;;3.90;99.90;;;;;;5060732;28;20486;-60
2022/02/01 08:23:00;;;;;;;6.63;1.47;;;3.80;99.90;;;;;;5059739;28;20479;-60
2022/02/01 08:25:28;;;;;;;8.77;1.80;;;3.90;99.90;;;;;;5060250;28;20471;-61
2022/02/01 08:28:00;;;;;;;11.70;1.83;;;3.90;99.90;;;;;;5060305;28;20580;-60
2022/02/01 08:30:29;;;;;;;10.17;1.73;;;3.90;99.90;;;;;;5062353;28;20471;-60
2022/02/01 08:32:57;;;;;;;9.30;2.33;;;3.90;99.90;;;;;;5063966;28;20464;-61
2022/02/01 08:35:27;;;;;;;11.07;2.27;;;3.90;99.90;;;;;;5062226;28;20477;-59
2022/02/01 08:38:16;;;;;;;12.73;2.23;;;4.00;99.90;;;;;;5059488;28;20499;-60
2022/02/01 08:40:46;;;;;;;11.70;2.10;;;4.00;99.90;;;;;;5058396;28;20978;-60
2022/02/01 08:43:17;;;;;;;11.30;2.60;;;4.00;99.90;;;;;;5058940;28;20541;-61
2022/02/01 08:45:47;;;;;;;10.37;2.17;;;4.00;99.90;;;;;;5059474;28;20469;-61
2022/02/01 08:48:16;;;;;;;6.90;2.10;;;4.10;99.90;;;;;;5065795;28;20477;-61
2022/02/01 08:50:45;;;;;;;12.87;2.93;;;4.10;99.90;;;;;;5070922;28;20479;-61
2022/02/01 08:53:16;;;;;;;9.60;2.47;;;4.10;99.90;;;;;;5071819;28;21228;-60
2022/02/01 08:56:02;;;;;;;8.37;2.70;;;4.10;99.90;;;;;;5070724;28;20558;-60
2022/02/01 08:58:32;;;;;;;13.63;2.47;;;4.10;99.90;;;;;;5069543;28;20522;-61
2022/02/01 09:01:00;;;;;;;9.53;2.70;;;4.10;99.90;;;;;;5071727;28;21050;-60
2022/02/01 09:03:31;;;;;;;9.13;2.20;;;4.10;99.90;;;;;;5071748;28;20474;-61
2022/02/01 09:05:59;;;;;;;9.07;2.47;;;4.20;99.90;;;;;;5071302;28;21039;-60
2022/02/01 09:08:30;;;;;;;8.70;2.03;;;4.20;99.90;;;;;;5071481;28;20469;-60
2022/02/01 09:10:59;;;;;;;12.30;2.33;;;4.20;99.90;;;;;;5072149;28;20481;-61
2022/02/01 09:13:27;;;;;;;10.87;2.20;;;4.30;99.90;;;;;;5071874;28;20479;-60
2022/02/01 09:15:57;;;;;;;9.30;2.07;;;4.30;99.90;;;;;;5070864;28;21015;-60
2022/02/01 09:18:25;;;;;;;11.77;2.50;;;4.30;99.90;;;;;;5071045;28;20481;-61
2022/02/01 09:20:54;;;;;;;10.00;2.43;;;4.30;99.90;;;;;;5068881;28;20480;-60
2022/02/01 09:23:22;;;;;;;8.47;2.20;;;4.30;99.90;;;;;;5068639;28;20488;-61
2022/02/01 09:25:50;;;;;;;8.50;2.17;;;4.30;99.90;;;;;;5067691;28;20473;-61
2022/02/01 09:28:18;;;;;;;10.43;2.20;;;4.30;99.90;;;;;;5068107;28;20480;-61
2022/02/01 09:30:48;;;;;;;7.43;2.17;;;4.30;99.90;;;;;;5067658;28;20473;-61
2022/02/01 09:33:18;;;;;;;6.90;2.10;;;4.30;99.90;;;;;;5067702;28;21051;-61
2022/02/01 09:35:46;;;;;;;10.80;2.27;;;4.30;99.90;;;;;;5067152;28;20475;-61
2022/02/01 09:38:17;;;;;;;6.47;2.53;;;4.30;99.90;;;;;;5067716;28;20491;-61
2022/02/01 09:40:47;;;;;;;9.17;2.33;;;4.30;99.90;;;;;;5067794;28;20556;-60
2022/02/01 09:43:17;;;;;;;7.50;2.33;;;4.30;99.90;;;;;;5068816;28;20473;-60
2022/02/01 09:45:45;;;;;;;4.37;2.10;;;4.30;99.90;;;;;;5071844;28;20513;-60
2022/02/01 09:48:35;;;;;;;7.60;2.20;;;4.30;99.90;;;;;;5053854;28;20525;-60
2022/02/01 09:51:07;;;;;;;8.80;2.60;;;4.30;99.90;;;;;;5049357;28;20474;-60
2022/02/01 09:53:36;;;;;;;5.93;2.17;;;4.30;99.90;;;;;;5050188;28;20478;-60
2022/02/01 09:56:04;;;;;;;10.37;2.90;;;4.30;99.90;;;;;;5072039;28;20997;-60
2022/02/01 09:58:34;;;;;;;10.13;2.50;;;4.30;99.90;;;;;;5071465;28;20881;-60
2022/02/01 10:01:14;;;;;;;8.47;2.53;;;4.30;99.90;;;;;;5071679;28;20476;-60
2022/02/01 10:03:46;;;;;;;7.73;2.50;;;4.40;99.90;;;;;;5071321;28;20476;-61
2022/02/01 10:06:35;;;;;;;7.73;2.70;;;4.40;99.90;;;;;;5070936;28;20473;-61
2022/02/01 10:09:23;;;;;;;8.83;3.27;;;4.30;99.90;;;;;;5070506;28;20473;-61
2022/02/01 10:11:51;;;;;;;9.47;2.73;;;4.40;99.90;;;;;;5071402;28;20481;-60
2022/02/01 10:14:25;;;;;;;7.60;3.00;;;4.40;99.90;;;;;;5071524;28;20527;-60
2022/02/01 10:16:56;;;;;;;5.93;3.27;;;4.40;99.90;;;;;;5069449;28;20562;-60
2022/02/01 10:19:26;;;;;;;7.20;3.47;;;4.40;99.90;;;;;;5070846;28;20492;-59
2022/02/01 10:21:56;;;;;;;6.33;3.13;;;4.50;99.90;;;;;;5069204;28;20829;-60
2022/02/01 10:24:29;;;;;;;8.73;3.23;;;4.50;99.90;;;;;;5071292;28;20538;-61
2022/02/01 10:27:17;;;;;;;7.27;2.97;;;4.50;99.90;;;;;;5069895;28;20526;-60
2022/02/01 10:29:59;;;;;;;6.70;2.87;;;4.50;99.90;;;;;;5069080;28;20473;-60
2022/02/01 10:32:39;;;;;;;7.80;3.53;;;4.50;99.90;;;;;;5065799;28;20548;-60
2022/02/01 10:35:25;;;;;;;5.53;3.40;;;4.50;99.90;;;;;;5056721;28;20992;-61
2022/02/01 10:37:59;;;;;;;9.47;3.83;;;4.60;99.90;;;;;;5056875;28;20605;-61
2022/02/01 10:40:40;;;;;;;7.20;3.00;;;4.50;99.90;;;;;;5048836;28;20476;-60
2022/02/01 10:43:26;;;;;;;5.20;2.70;;;4.60;99.90;;;;;;5050303;28;20480;-61
2022/02/01 10:46:05;;;;;;;9.63;3.10;;;4.60;99.90;;;;;;5049157;28;20540;-60
2022/02/01 10:48:33;;;;;;;5.17;2.73;;;4.60;99.90;;;;;;5047197;28;20506;-60
2022/02/01 10:51:06;;;;;;;4.70;2.60;;;4.60;99.90;;;;;;5056110;28;20456;-60
2022/02/01 10:53:36;;;;;;;6.17;2.87;;;4.70;99.90;;;;;;5049923;28;21085;-60
2022/02/01 10:56:06;;;;;;;5.77;3.00;;;4.70;99.90;;;;;;5053652;28;20486;-61
2022/02/01 10:58:34;;;;;;;4.73;2.47;;;4.80;99.90;;;;;;5055938;28;20509;-61
2022/02/01 11:01:03;;;;;;;4.83;2.83;;;4.80;99.90;;;;;;5066502;28;20466;-61
2022/02/01 11:03:32;;;;;;;6.00;2.70;;;4.90;99.90;;;;;;5065177;28;20472;-60
2022/02/01 11:06:04;;;;;;;3.10;2.50;;;4.90;99.90;;;;;;5066558;28;20454;-60
2022/02/01 11:08:38;;;;;;;4.53;2.60;;;4.80;99.90;;;;;;5065127;28;20480;-60
2022/02/01 11:11:07;;;;;;;4.10;2.47;;;4.80;99.90;;;;;;5066312;28;20547;-61
2022/02/01 11:13:40;;;;;;;4.73;2.67;;;4.90;99.90;;;;;;5064751;28;20492;-60
2022/02/01 11:16:13;;;;;;;4.23;2.63;;;4.90;99.90;;;;;;5091067;28;20465;-61
2022/02/01 11:18:54;;;;;;;5.33;2.50;;;4.80;99.90;;;;;;5063927;28;20477;-62
2022/02/01 11:21:24;;;;;;;5.60;2.80;;;4.90;99.90;;;;;;5063903;28;20481;-61
2022/02/01 11:23:58;;;;;;;3.70;2.90;;;4.90;99.90;;;;;;5063889;28;20808;-61
2022/02/01 11:26:35;;;;;;;3.83;2.40;;;4.90;99.90;;;;;;5066258;28;20699;-60
2022/02/01 11:29:29;;;;;;;4.03;2.67;;;4.90;99.90;;;;;;5066486;28;20558;-61
2022/02/01 11:32:01;;;;;;;5.10;3.00;;;4.90;99.90;;;;;;5066406;28;21007;-60
2022/02/01 11:34:42;;;;;;;4.23;2.97;;;4.90;99.90;;;;;;5064522;28;20523;-61
2022/02/01 11:37:16;;;;;;;4.70;3.03;;;5.00;99.90;;;;;;5063753;28;20499;-61
2022/02/01 11:39:54;;;;;;;5.67;2.60;;;5.00;99.90;;;;;;5065929;28;21528;-61
2022/02/01 11:42:30;;;;;;;3.50;2.50;;;5.10;99.90;;;;;;5065765;28;20468;-61
2022/02/01 11:45:01;;;;;;;4.20;2.37;;;5.10;99.90;;;;;;5065661;28;20491;-61
2022/02/01 11:47:34;;;;;;;3.80;3.10;;;5.10;99.90;;;;;;5065610;28;21026;-60
2022/02/01 11:50:12;;;;;;;3.17;2.60;;;5.10;99.90;;;;;;5066314;28;20526;-60
2022/02/01 11:52:46;;;;;;;4.03;2.40;;;5.20;99.90;;;;;;5062945;28;20486;-61
2022/02/01 11:55:16;;;;;;;3.37;2.50;;;5.20;99.90;;;;;;5065921;28;20475;-60
2022/02/01 11:58:02;;;;;;;4.93;2.40;;;5.20;99.90;;;;;;5065427;28;20529;-61
2022/02/01 12:00:36;;;;;;;4.17;2.50;;;5.30;99.90;;;;;;5065229;28;20252;-61
2022/02/01 12:03:05;;;;;;;4.17;2.60;;;5.30;99.90;;;;;;5064594;28;20754;-60
2022/02/01 12:05:35;;;;;;;3.30;2.70;;;5.30;99.90;;;;;;5066310;28;21020;-61
2022/02/01 12:08:10;;;;;;;3.57;2.50;;;5.30;99.90;;;;;;5065779;28;20536;-61
2022/02/01 12:10:40;;;;;;;2.40;2.20;;;5.40;99.90;;;;;;5065732;28;20998;-61
2022/02/01 12:13:10;;;;;;;2.67;2.00;;;5.40;99.90;;;;;;5063218;28;20484;-61
2022/02/01 12:15:40;;;;;;;2.03;1.87;;;5.40;99.90;;;;;;5068130;28;20540;-61
2022/02/01 12:18:16;;;;;;;2.33;1.70;;;5.50;99.90;;;;;;5068846;28;20466;-61
2022/02/01 12:20:45;;;;;;;2.20;2.00;;;5.50;99.90;;;;;;5069583;28;20997;-61
2022/02/01 12:23:25;;;;;;;2.67;2.13;;;5.60;99.90;;;;;;5068545;28;20714;-61
2022/02/01 12:25:54;;;;;;;2.73;2.23;;;5.70;99.90;;;;;;5068645;28;20868;-61
2022/02/01 12:28:23;;;;;;;2.10;1.83;;;5.70;99.90;;;;;;5068655;28;20469;-60
2022/02/01 12:30:53;;;;;;;1.40;1.30;;;5.70;99.90;;;;;;5069735;28;20529;-61
2022/02/01 12:33:26;;;;;;;4.13;1.53;;;5.80;99.90;;;;;;5067624;28;20573;-61
2022/02/01 12:35:56;;;;;;;2.30;1.70;;;5.90;99.90;;;;;;5069561;28;20562;-61
2022/02/01 12:38:29;;;;;;;1.97;1.60;;;5.90;99.90;;;;;;5069175;28;20476;-61
2022/02/01 12:41:02;;;;;;;3.03;1.70;;;5.90;99.90;;;;;;5069129;28;20250;-61
2022/02/01 12:43:43;;;;;;;2.73;1.60;;;5.90;99.90;;;;;;5068327;28;20239;-61
2022/02/01 12:46:30;;;;;;;1.80;1.53;;;5.90;99.90;;;;;;5068952;28;20276;-61
2022/02/01 12:49:19;;;;;;;2.27;1.47;;;6.00;99.90;;;;;;5068109;28;20268;-61
2022/02/01 12:51:50;;;;;;;4.47;1.90;;;6.00;99.90;;;;;;5066642;28;20822;-60
2022/02/01 12:54:27;;;;;;;2.53;2.00;;;6.00;99.90;;;;;;5067968;28;20758;-61
2022/02/01 12:57:07;;;;;;;3.40;1.87;;;6.00;99.90;;;;;;5069557;28;20518;-61
2022/02/01 12:59:45;;;;;;;4.17;2.23;;;6.10;99.90;;;;;;5072460;28;20231;-60
2022/02/01 13:02:16;;;;;;;4.63;2.50;;;6.10;99.90;;;;;;5071769;28;20333;-61
2022/02/01 13:04:45;;;;;;;7.90;2.63;;;6.10;99.90;;;;;;5070597;28;20270;-61
2022/02/01 13:07:23;;;;;;;4.57;2.80;;;6.20;99.90;;;;;;5066945;28;20235;-61
2022/02/01 13:13:09;;;;;;;7.60;3.40;;;6.30;99.90;;;;;;5067838;28;20477;-60
2022/02/01 13:15:42;;;;;;;9.43;3.50;;;6.30;99.90;;;;;;5067689;28;20231;-62
2022/02/01 13:18:21;;;;;;;10.00;3.30;;;6.30;99.90;;;;;;5067473;28;20242;-61
2022/02/01 13:20:59;;;;;;;9.87;3.57;;;6.30;99.90;;;;;;5068473;28;20300;-61
2022/02/01 13:23:39;;;;;;;7.87;3.40;;;6.40;99.90;;;;;;5066113;28;20266;-61
2022/02/01 13:26:10;;;;;;;11.93;3.73;;;6.40;99.90;;;;;;5068405;28;20238;-61
2022/02/01 13:29:00;;;;;;;12.20;3.63;;;6.50;99.90;;;;;;5068030;28;20262;-60
2022/02/01 13:31:31;;;;;;;11.30;2.90;;;6.50;99.90;;;;;;5068142;28;20687;-61
2022/02/01 13:34:04;;;;;;;14.63;3.60;;;6.50;99.90;;;;;;5067237;28;20227;-61
2022/02/01 13:36:33;;;;;;;13.77;2.90;;;6.60;99.90;;;;;;5068425;28;20251;-61
2022/02/01 13:39:05;;;;;;;14.63;3.50;;;6.70;99.90;;;;;;5068444;28;20233;-59
2022/02/01 13:41:36;;;;;;;16.20;3.13;;;6.70;99.90;;;;;;5067682;28;20922;-61
2022/02/01 13:44:08;;;;;;;17.70;3.07;;;6.80;99.90;;;;;;5066779;28;20247;-61
2022/02/01 13:46:38;;;;;;;14.53;3.07;;;6.80;99.90;;;;;;5067425;28;20246;-61
2022/02/01 13:49:08;;;;;;;19.80;3.10;;;6.80;99.90;;;;;;5067765;28;20227;-61
2022/02/01 13:51:46;;;;;;;14.90;2.70;;;6.80;99.90;;;;;;5067884;28;20292;-59
2022/02/01 13:54:14;;;;;;;14.87;3.40;;;6.90;99.90;;;;;;5066022;28;20238;-60
2022/02/01 13:56:46;;;;;;;18.10;3.00;;;6.90;99.90;;;;;;5067249;28;20729;-61
2022/02/01 13:59:18;;;;;;;16.63;3.13;;;6.90;99.90;;;;;;5067387;28;20704;-60
2022/02/01 14:01:47;;;;;;;20.67;3.30;;;6.90;99.90;;;;;;5067077;28;20330;-60
2022/02/01 14:04:41;;;;;;;22.47;3.70;;;6.90;99.90;;;;;;5066304;28;20235;-61
2022/02/01 14:07:16;;;;;;;20.90;3.73;;;6.90;99.90;;;;;;5066666;28;20234;-61
2022/02/01 14:09:59;;;;;;;16.57;3.50;;;7.00;99.90;;;;;;5066940;28;21299;-60
2022/02/01 14:26:51;;;;;;;14.00;2.33;;;7.10;99.90;;;;;;5027052;28;20715;-61